Lantana, FL

8:12 PM EST on February 09, 2016 (GMT -0500)
Island Estates | | Change Station
CLOSE
Current Station
Personal Weather Station
Location: Lantana, FL
Elevation: 45 ft
Nearby Weather Stations

Elev 45 ft 26.57 °N, 80.08 °W | Updated 2 minutes ago

Mostly Cloudy
Mostly Cloudy
59.8 °F
Feels Like 59.8 °F
N
5.0
Wind Variable Wind from WNW
Gusts 7.0 mph

Today
High -- | Low -- °F
--% Chance of Precip.
Yesterday
High -- | Low -- °F
Precip. -- in
Pressure 30.07 in
Visibility 10.0 miles
Clouds Few 4800 ft
Mostly Cloudy 25000 ft
Dew Point 48 °F
Humidity 66%
Rainfall 0.00 in
Snow Depth Not available.
7:00 AM 6:08 PM
Waxing Crescent, 3% visible
METAR KPBI 100053Z 26009KT 10SM FEW048 BKN250 15/07 A3007 RMK AO2 SLP181 T01500072
Pressure 30.07 in
Visibility 10.0 miles
Clouds Few 4800 ft
Mostly Cloudy 25000 ft
Dew Point 48 °F
Humidity 66%
Rainfall 0.00 in
Snow Depth Not available.
7:00 AM 6:08 PM
Waxing Crescent, 3% visible
METAR KPBI 100053Z 26009KT 10SM FEW048 BKN250 15/07 A3007 RMK AO2 SLP181 T01500072

10-Day Weather Forecast

Almanac

Astronomy

Feb. 09, 2016 Rise Set
Actual Time
Civil Twilight
Nautical Twilight
Astronomical Twilight
Moon
Length of Visible Light
Length of Day
Tomorrow will be .
, % of the Moon is Illuminated

Today's Extremes

State Highs State Lows

Community

WunderPhotos

Upload Photos

1,891,752 photos uploaded!

WunderBlog® & News

Nearby

Air Quality

  Air Quality AQ Index Pollutant
Not available.

Snow Depth

Station Depth Elevation

Earthquake Activity

City Distance Mag. Time & Date
Minimum magnitude displayed is 2.5.

Coastal Water Temperatures

Place Temperature

Stations

Nearby Weather Stations

Station Location Temp. Windchill Dew Point Humidity Wind Precip. Elev Updated Type
                   

Watches & Warnings

There are currently no watches in effect.